Time;durP1;ratioP1;P1;durP2;ratioP2;P2;SDS_P1;SDS_P2;PMS_P1;PMS_P2;Temp;Humidity;BMP_temperature;BMP_pressure;BME280_temperature;BME280_humidity;BME280_pressure;Samples;Min_cycle;Max_cycle;Signal;HPM_P1;HPM_P2
2024/04/17 00:00:28;;;;;;;8.20;1.27;;;13.70;82.10;;;;;;5188261;27;20295;-60
2024/04/17 00:02:55;;;;;;;3.73;1.20;;;13.60;82.40;;;;;;5211920;27;20253;-59
2024/04/17 00:05:22;;;;;;;4.47;1.40;;;13.60;83.00;;;;;;5245648;27;20244;-60
2024/04/17 00:07:49;;;;;;;4.97;1.77;;;13.50;83.20;;;;;;5244759;27;20252;-59
2024/04/17 00:10:17;;;;;;;8.73;1.57;;;13.50;83.40;;;;;;5244877;27;20243;-59
2024/04/17 00:12:44;;;;;;;7.70;1.77;;;13.40;83.40;;;;;;5243759;27;20569;-59
2024/04/17 00:15:12;;;;;;;6.67;2.53;;;13.40;83.30;;;;;;5245354;27;20294;-60
2024/04/17 00:17:39;;;;;;;5.70;1.33;;;13.30;83.20;;;;;;5212262;27;20247;-60
2024/04/17 00:20:07;;;;;;;4.33;1.80;;;13.30;83.10;;;;;;5214341;27;20249;-59
2024/04/17 00:22:34;;;;;;;4.13;1.33;;;13.20;83.10;;;;;;5242792;27;20252;-59
2024/04/17 00:25:02;;;;;;;7.07;1.37;;;13.10;83.10;;;;;;5217293;27;20557;-59
2024/04/17 00:27:29;;;;;;;6.83;1.40;;;13.10;83.10;;;;;;5244315;27;20268;-59
2024/04/17 00:29:57;;;;;;;5.13;1.30;;;13.00;83.00;;;;;;5213627;27;20296;-59
2024/04/17 00:32:24;;;;;;;3.83;1.00;;;12.90;83.20;;;;;;5203573;27;20617;-59
2024/04/17 00:34:51;;;;;;;4.17;1.43;;;12.90;83.50;;;;;;5244501;27;20347;-59
2024/04/17 00:37:19;;;;;;;4.20;1.10;;;12.80;83.60;;;;;;5243076;27;20298;-60
2024/04/17 00:39:47;;;;;;;2.33;1.10;;;12.70;83.90;;;;;;5217970;27;20343;-59
2024/04/17 00:42:15;;;;;;;4.33;1.20;;;12.70;84.20;;;;;;5243874;27;20294;-59
2024/04/17 00:44:42;;;;;;;2.80;0.80;;;12.70;84.50;;;;;;5242290;27;20244;-59
2024/04/17 00:47:10;;;;;;;1.17;0.80;;;12.60;85.20;;;;;;5243394;27;20299;-60
2024/04/17 00:49:38;;;;;;;5.17;1.23;;;12.50;84.60;;;;;;5241845;27;20244;-60
2024/04/17 00:52:05;;;;;;;1.40;0.90;;;12.50;84.70;;;;;;5244686;27;20302;-59
2024/04/17 00:54:35;;;;;;;2.97;1.50;;;12.40;84.70;;;;;;5244398;27;20253;-59
2024/04/17 00:57:04;;;;;;;3.23;1.40;;;12.30;84.70;;;;;;5207541;27;20255;-59
2024/04/17 00:59:31;;;;;;;2.77;1.20;;;12.20;84.80;;;;;;5244275;27;20240;-60
2024/04/17 01:01:58;;;;;;;2.57;1.10;;;12.10;85.00;;;;;;5239708;27;20256;-59
2024/04/17 01:04:27;;;;;;;4.50;1.33;;;12.10;85.20;;;;;;5242017;27;20808;-59
2024/04/17 01:06:54;;;;;;;5.20;1.30;;;12.00;85.30;;;;;;5215781;27;20249;-59
2024/04/17 01:09:22;;;;;;;3.70;1.23;;;11.90;85.30;;;;;;5236159;27;20622;-59
2024/04/17 01:11:50;;;;;;;1.60;1.10;;;11.80;85.30;;;;;;5210770;27;20264;-59
2024/04/17 01:14:18;;;;;;;3.53;1.60;;;11.80;85.60;;;;;;5236547;27;20262;-60
2024/04/17 01:16:46;;;;;;;2.97;1.30;;;11.70;85.70;;;;;;5242771;27;20283;-60
2024/04/17 01:19:15;;;;;;;2.73;1.40;;;11.70;85.70;;;;;;5241259;27;20248;-60
2024/04/17 01:21:42;;;;;;;1.47;0.90;;;11.60;85.70;;;;;;5217001;27;20304;-59
2024/04/17 01:24:10;;;;;;;2.50;0.80;;;11.50;85.40;;;;;;5219552;27;20254;-60
2024/04/17 01:26:37;;;;;;;1.53;1.20;;;11.50;85.50;;;;;;5245778;27;20256;-60
2024/04/17 01:29:04;;;;;;;1.80;0.73;;;11.40;85.60;;;;;;5247445;27;20354;-59
2024/04/17 01:31:32;;;;;;;5.40;1.23;;;11.40;85.80;;;;;;5215639;27;20291;-59
2024/04/17 01:33:59;;;;;;;2.20;0.90;;;11.40;85.90;;;;;;5246689;27;20581;-59
2024/04/17 01:36:26;;;;;;;2.53;0.70;;;11.40;86.00;;;;;;5234279;27;20256;-59
2024/04/17 01:38:54;;;;;;;2.40;0.97;;;11.30;86.10;;;;;;5243961;27;20268;-59
2024/04/17 01:41:23;;;;;;;1.10;0.80;;;11.30;86.30;;;;;;5215417;27;20291;-59
2024/04/17 01:43:50;;;;;;;1.73;1.10;;;11.20;86.30;;;;;;5212599;27;20311;-59
2024/04/17 01:46:18;;;;;;;2.00;1.30;;;11.10;86.50;;;;;;5214902;27;20332;-59
2024/04/17 01:48:46;;;;;;;6.37;1.03;;;11.10;86.70;;;;;;5245039;27;20361;-60
2024/04/17 01:51:14;;;;;;;2.40;0.97;;;11.00;87.00;;;;;;5209637;27;20762;-60
2024/04/17 01:53:43;;;;;;;1.70;0.83;;;11.00;87.20;;;;;;5239878;27;20301;-59
2024/04/17 01:56:11;;;;;;;2.00;0.90;;;11.00;87.50;;;;;;5166753;27;20287;-58
2024/04/17 01:58:39;;;;;;;6.43;0.97;;;11.00;87.50;;;;;;5210789;27;20295;-59
2024/04/17 02:01:07;;;;;;;3.30;0.83;;;11.00;87.60;;;;;;5186342;27;20331;-60
2024/04/17 02:03:36;;;;;;;4.03;0.80;;;11.00;87.60;;;;;;5215530;27;20320;-59
2024/04/17 02:06:04;;;;;;;0.90;0.87;;;11.00;87.80;;;;;;5240518;27;20931;-60
2024/04/17 02:08:32;;;;;;;0.87;0.87;;;11.00;87.80;;;;;;5226305;27;20248;-60
2024/04/17 02:10:59;;;;;;;2.90;1.40;;;11.00;87.60;;;;;;5218806;27;20349;-59
2024/04/17 02:13:27;;;;;;;3.37;0.80;;;10.90;87.70;;;;;;5215647;27;20363;-60
2024/04/17 02:16:00;;;;;;;1.00;0.70;;;10.90;87.90;;;;;;5188244;27;20376;-58
2024/04/17 02:18:28;;;;;;;1.33;1.20;;;10.90;88.10;;;;;;5245298;27;20343;-59
2024/04/17 02:20:56;;;;;;;2.73;1.10;;;10.90;88.00;;;;;;5244111;27;20252;-59
2024/04/17 02:23:28;;;;;;;0.97;0.70;;;11.00;88.10;;;;;;5242819;27;20337;-59
2024/04/17 02:25:56;;;;;;;1.80;0.90;;;11.00;88.00;;;;;;5218162;27;20561;-59
2024/04/17 02:28:23;;;;;;;1.83;0.80;;;11.00;87.90;;;;;;5244927;27;20244;-59
2024/04/17 02:30:51;;;;;;;2.33;1.00;;;11.00;88.00;;;;;;5246616;27;20351;-59
2024/04/17 02:33:19;;;;;;;1.00;0.70;;;11.00;88.20;;;;;;5195914;27;20306;-59
2024/04/17 02:35:47;;;;;;;1.27;1.00;;;11.00;88.20;;;;;;5242996;27;20340;-60
2024/04/17 02:38:16;;;;;;;1.27;0.90;;;11.00;88.30;;;;;;5241325;27;20253;-60
2024/04/17 02:40:44;;;;;;;2.10;0.63;;;11.10;88.20;;;;;;5244602;27;20248;-59
2024/04/17 02:43:11;;;;;;;1.20;0.60;;;11.10;88.10;;;;;;5214762;27;20573;-59
2024/04/17 02:45:40;;;;;;;0.70;0.67;;;11.10;88.30;;;;;;5246152;27;20587;-59
2024/04/17 02:48:07;;;;;;;2.53;1.17;;;11.10;88.30;;;;;;5240222;27;20316;-60
2024/04/17 02:50:41;;;;;;;1.30;0.70;;;11.20;88.20;;;;;;5186251;27;20253;-60
2024/04/17 02:53:09;;;;;;;1.73;0.93;;;11.20;87.90;;;;;;5244847;27;20299;-59
2024/04/17 02:55:36;;;;;;;1.03;0.87;;;11.10;87.60;;;;;;5229012;27;20336;-59
2024/04/17 02:58:04;;;;;;;0.80;0.60;;;11.10;87.60;;;;;;5243270;27;20252;-59
2024/04/17 03:00:32;;;;;;;1.70;0.87;;;11.10;87.70;;;;;;5246346;27;20294;-59
2024/04/17 03:03:04;;;;;;;4.63;0.80;;;11.00;87.80;;;;;;5245780;27;20338;-60
2024/04/17 03:05:34;;;;;;;3.67;0.80;;;11.00;88.20;;;;;;5245801;27;20256;-59
2024/04/17 03:08:02;;;;;;;3.70;1.00;;;11.00;88.40;;;;;;5243427;27;20252;-59
2024/04/17 03:10:29;;;;;;;3.50;1.00;;;11.00;89.10;;;;;;5241554;27;20324;-59
2024/04/17 03:12:57;;;;;;;2.03;0.77;;;11.10;88.20;;;;;;5243138;27;20351;-60
2024/04/17 03:15:24;;;;;;;1.17;0.80;;;11.10;87.80;;;;;;5216608;27;20260;-59
2024/04/17 03:17:52;;;;;;;1.70;1.03;;;11.00;87.70;;;;;;5188597;27;20296;-59
2024/04/17 03:20:20;;;;;;;2.50;0.97;;;11.00;87.80;;;;;;5244224;27;20312;-59
2024/04/17 03:22:49;;;;;;;1.23;0.70;;;11.00;87.90;;;;;;5243704;27;20315;-59
2024/04/17 03:25:17;;;;;;;1.77;0.80;;;11.00;88.30;;;;;;5240370;27;20263;-59
2024/04/17 03:27:44;;;;;;;4.10;1.10;;;11.00;88.20;;;;;;5243132;27;21528;-59
2024/04/17 03:30:11;;;;;;;2.80;1.20;;;10.90;88.10;;;;;;5241183;27;20707;-59
2024/04/17 03:32:39;;;;;;;2.50;0.80;;;11.00;88.20;;;;;;5243658;27;20311;-59
2024/04/17 03:35:08;;;;;;;3.27;1.10;;;11.00;88.30;;;;;;5245647;27;20257;-58
2024/04/17 03:37:35;;;;;;;1.30;1.17;;;11.00;88.20;;;;;;5245456;27;20609;-59
2024/04/17 03:40:04;;;;;;;0.80;0.80;;;11.00;88.10;;;;;;5241944;27;20252;-60
2024/04/17 03:42:31;;;;;;;1.70;0.90;;;11.00;88.00;;;;;;5200546;27;20759;-59
2024/04/17 03:44:59;;;;;;;1.27;1.03;;;11.00;88.10;;;;;;5242936;27;20241;-59
2024/04/17 03:47:26;;;;;;;2.60;0.90;;;11.00;88.30;;;;;;5211302;27;20256;-59
2024/04/17 03:50:01;;;;;;;1.23;0.90;;;11.00;88.40;;;;;;5218815;27;20306;-59
2024/04/17 03:52:29;;;;;;;1.00;0.77;;;11.00;88.40;;;;;;5241233;27;20254;-59
2024/04/17 03:54:58;;;;;;;0.83;0.57;;;11.00;88.50;;;;;;5242214;27;20306;-60
2024/04/17 03:57:28;;;;;;;3.13;1.20;;;11.00;88.60;;;;;;5245528;27;20724;-60
2024/04/17 03:59:56;;;;;;;1.10;0.83;;;11.00;88.70;;;;;;5213519;27;20305;-59
2024/04/17 04:02:23;;;;;;;4.33;1.00;;;10.90;88.90;;;;;;5242470;27;20354;-59
2024/04/17 04:04:51;;;;;;;3.07;0.90;;;10.90;89.70;;;;;;5240562;27;20248;-60
2024/04/17 04:07:19;;;;;;;1.50;0.90;;;10.90;89.20;;;;;;5243038;27;20259;-60
2024/04/17 04:09:46;;;;;;;2.10;0.90;;;10.90;89.30;;;;;;5239903;27;20313;-59
2024/04/17 04:12:15;;;;;;;3.53;0.90;;;10.90;89.20;;;;;;5239428;27;20339;-59
2024/04/17 04:14:42;;;;;;;1.87;0.83;;;10.90;89.10;;;;;;5214807;27;20249;-59
2024/04/17 04:17:14;;;;;;;1.33;0.90;;;10.80;89.20;;;;;;5239737;27;20731;-60
2024/04/17 04:19:43;;;;;;;2.87;0.90;;;10.80;89.50;;;;;;5243801;27;20805;-59
2024/04/17 04:22:10;;;;;;;2.10;1.07;;;10.80;89.60;;;;;;5238779;27;20249;-60
2024/04/17 04:24:39;;;;;;;1.00;1.00;;;10.80;89.60;;;;;;5243694;27;20737;-60
2024/04/17 04:27:10;;;;;;;2.60;0.70;;;10.70;89.80;;;;;;5244399;27;20249;-59
2024/04/17 04:29:38;;;;;;;1.90;1.00;;;10.70;90.00;;;;;;5242344;27;20927;-59
2024/04/17 04:32:05;;;;;;;3.33;0.90;;;10.60;90.00;;;;;;5210180;27;20249;-60
2024/04/17 04:34:33;;;;;;;1.27;1.00;;;10.70;90.10;;;;;;5242436;27;20287;-59
2024/04/17 04:37:01;;;;;;;2.27;0.97;;;10.60;90.10;;;;;;5244578;27;20287;-60
2024/04/17 04:39:28;;;;;;;2.00;0.83;;;10.60;90.20;;;;;;5243780;27;20347;-60
2024/04/17 04:41:55;;;;;;;5.03;1.10;;;10.60;90.10;;;;;;5242312;27;20745;-59
2024/04/17 04:44:23;;;;;;;1.60;1.13;;;10.60;90.00;;;;;;5243611;27;20245;-60
2024/04/17 04:46:53;;;;;;;2.67;1.10;;;10.60;90.20;;;;;;5241835;27;20693;-60
2024/04/17 04:49:23;;;;;;;1.93;0.90;;;10.60;90.30;;;;;;5234576;27;20801;-59
2024/04/17 04:51:51;;;;;;;0.80;0.80;;;10.60;90.40;;;;;;5237914;27;20315;-59
2024/04/17 04:54:18;;;;;;;1.00;1.00;;;10.60;90.30;;;;;;5236876;27;20252;-59
2024/04/17 04:56:46;;;;;;;2.90;1.07;;;10.60;90.20;;;;;;5245579;27;20561;-59
2024/04/17 04:59:13;;;;;;;1.63;1.13;;;10.60;90.00;;;;;;5242621;27;20251;-59
2024/04/17 05:01:41;;;;;;;4.83;1.23;;;10.60;90.10;;;;;;5241774;27;20268;-59
2024/04/17 05:04:09;;;;;;;1.20;1.10;;;10.60;90.20;;;;;;5244746;27;20289;-59
2024/04/17 05:06:37;;;;;;;4.80;1.30;;;10.60;90.30;;;;;;5247406;27;20248;-60
2024/04/17 05:09:05;;;;;;;1.27;1.10;;;10.70;90.30;;;;;;5216398;27;20286;-59
2024/04/17 05:11:33;;;;;;;2.43;1.03;;;10.70;90.30;;;;;;5204824;27;20751;-59
2024/04/17 05:14:01;;;;;;;4.00;1.90;;;10.80;90.30;;;;;;5242952;27;20247;-59
2024/04/17 05:16:29;;;;;;;4.13;1.33;;;10.80;90.40;;;;;;5244064;27;20563;-59
2024/04/17 05:18:57;;;;;;;5.40;1.07;;;10.90;90.40;;;;;;5242419;27;20248;-60
2024/04/17 05:21:25;;;;;;;6.83;1.60;;;10.90;90.50;;;;;;5216913;27;20244;-60
2024/04/17 05:23:53;;;;;;;2.57;0.83;;;11.00;90.50;;;;;;5247085;27;20252;-59
2024/04/17 05:26:21;;;;;;;3.60;1.33;;;11.00;90.40;;;;;;5217441;27;20261;-59
2024/04/17 05:28:48;;;;;;;1.70;1.03;;;11.10;90.40;;;;;;5218139;27;20278;-59
2024/04/17 05:31:16;;;;;;;3.60;1.00;;;11.10;90.40;;;;;;5245780;27;20262;-60
2024/04/17 05:33:46;;;;;;;5.77;1.43;;;11.20;90.40;;;;;;5241832;27;20339;-60
2024/04/17 05:36:14;;;;;;;3.60;1.30;;;11.30;90.40;;;;;;5242041;27;20853;-59
2024/04/17 05:38:42;;;;;;;4.00;1.20;;;11.40;90.40;;;;;;5215423;27;20333;-59
2024/04/17 05:41:09;;;;;;;4.10;2.00;;;11.50;90.40;;;;;;5242907;27;20303;-60
2024/04/17 05:43:37;;;;;;;1.53;1.37;;;11.60;90.30;;;;;;5244515;27;20255;-59
2024/04/17 05:46:04;;;;;;;2.97;1.40;;;11.70;90.10;;;;;;5186343;27;20245;-59
2024/04/17 05:48:31;;;;;;;3.00;1.40;;;11.70;89.90;;;;;;5245112;27;20252;-60
2024/04/17 05:50:59;;;;;;;2.20;1.70;;;11.80;89.40;;;;;;5240869;27;20255;-60
2024/04/17 05:53:27;;;;;;;4.63;1.67;;;11.90;89.00;;;;;;5215409;27;20300;-59
2024/04/17 05:55:55;;;;;;;6.70;1.80;;;11.90;88.90;;;;;;5239640;27;20256;-59
2024/04/17 05:58:23;;;;;;;6.83;1.80;;;12.00;88.90;;;;;;5186396;27;20555;-59
2024/04/17 06:00:51;;;;;;;2.03;1.73;;;12.10;88.80;;;;;;5242096;27;20244;-60
2024/04/17 06:03:19;;;;;;;2.10;1.63;;;12.20;88.40;;;;;;5187510;27;20261;-59
2024/04/17 06:05:47;;;;;;;6.90;1.60;;;12.20;87.80;;;;;;5246109;27;20294;-60
2024/04/17 06:08:14;;;;;;;3.23;1.90;;;12.20;88.40;;;;;;5206016;27;20253;-60
2024/04/17 06:10:42;;;;;;;3.67;1.80;;;12.30;88.30;;;;;;5217379;27;20307;-60
2024/04/17 06:13:09;;;;;;;4.03;2.23;;;12.40;87.30;;;;;;5188978;27;20248;-60
2024/04/17 06:15:37;;;;;;;5.67;2.87;;;12.40;86.80;;;;;;5245577;27;20621;-59
2024/04/17 06:18:06;;;;;;;4.67;3.17;;;12.40;86.60;;;;;;5242336;27;20272;-59
2024/04/17 06:20:34;;;;;;;8.40;3.70;;;12.50;86.50;;;;;;5211551;27;20343;-59
2024/04/17 06:23:03;;;;;;;3.93;2.90;;;12.50;86.30;;;;;;5206402;27;20647;-60
2024/04/17 06:25:31;;;;;;;3.00;2.40;;;12.50;86.10;;;;;;5243115;27;20528;-60
2024/04/17 06:27:59;;;;;;;3.07;2.30;;;12.50;85.90;;;;;;5239950;27;20703;-60
2024/04/17 06:30:28;;;;;;;4.20;2.60;;;12.50;85.30;;;;;;5245299;27;20699;-58
2024/04/17 06:32:55;;;;;;;5.77;2.83;;;12.50;85.10;;;;;;5246467;27;20244;-59
2024/04/17 06:35:23;;;;;;;2.63;2.37;;;12.50;85.20;;;;;;5243174;27;20657;-60
2024/04/17 06:37:50;;;;;;;7.43;2.83;;;12.50;85.50;;;;;;5218039;27;20311;-60
2024/04/17 06:40:18;;;;;;;4.33;2.37;;;12.50;85.40;;;;;;5234549;27;20582;-59
2024/04/17 06:42:45;;;;;;;6.10;2.57;;;12.60;85.70;;;;;;5242280;27;20252;-59
2024/04/17 06:45:13;;;;;;;2.80;2.50;;;12.70;85.40;;;;;;5245185;27;20268;-59
2024/04/17 06:47:40;;;;;;;2.50;2.20;;;12.80;84.80;;;;;;5244140;27;20293;-60
2024/04/17 06:50:07;;;;;;;7.37;2.50;;;12.90;85.10;;;;;;5213440;27;20255;-60
2024/04/17 06:52:35;;;;;;;3.17;2.63;;;13.10;85.70;;;;;;5246064;27;20734;-59
2024/04/17 06:55:04;;;;;;;4.33;2.40;;;13.30;85.60;;;;;;5239422;27;20264;-59
2024/04/17 06:57:31;;;;;;;8.00;2.50;;;13.50;85.10;;;;;;5185863;27;20307;-59
2024/04/17 07:00:00;;;;;;;6.03;2.43;;;13.70;84.50;;;;;;5240705;27;20292;-59
2024/04/17 07:02:28;;;;;;;5.87;2.10;;;13.90;83.60;;;;;;5245891;27;20311;-60
2024/04/17 07:04:56;;;;;;;4.37;2.33;;;14.00;82.80;;;;;;5239644;27;20353;-57
2024/04/17 07:07:24;;;;;;;4.47;2.23;;;14.10;82.40;;;;;;5224440;27;20249;-57
2024/04/17 07:09:52;;;;;;;6.30;2.27;;;14.20;82.00;;;;;;5241818;27;20253;-57
2024/04/17 07:12:20;;;;;;;2.87;1.97;;;14.30;81.70;;;;;;5236666;27;20261;-57
2024/04/17 07:14:48;;;;;;;4.43;1.90;;;14.40;81.40;;;;;;5209851;27;20651;-59
2024/04/17 07:17:16;;;;;;;6.53;2.63;;;14.40;81.10;;;;;;5207580;27;20250;-61
2024/04/17 07:19:46;;;;;;;5.50;2.80;;;14.40;80.60;;;;;;5210960;27;20246;-62
2024/04/17 07:22:14;;;;;;;4.77;2.77;;;14.50;80.50;;;;;;5207500;27;20257;-60
2024/04/17 07:24:41;;;;;;;7.20;2.83;;;14.50;80.30;;;;;;5221097;27;20803;-60
2024/04/17 07:27:08;;;;;;;6.13;3.20;;;14.50;80.30;;;;;;5183204;27;20292;-61
2024/04/17 07:29:36;;;;;;;4.73;3.13;;;14.50;79.80;;;;;;5209801;27;20245;-60
2024/04/17 07:32:04;;;;;;;4.17;2.93;;;14.50;79.30;;;;;;5208620;27;20341;-60
2024/04/17 07:34:33;;;;;;;3.50;3.17;;;14.50;80.00;;;;;;5209347;27;20304;-60
2024/04/17 07:37:02;;;;;;;6.57;2.90;;;14.50;79.10;;;;;;5214347;27;20254;-58
2024/04/17 07:39:30;;;;;;;10.23;3.17;;;14.50;79.30;;;;;;5211784;27;20424;-60
2024/04/17 07:41:58;;;;;;;7.07;2.53;;;14.50;79.40;;;;;;5187606;27;20253;-60
2024/04/17 07:44:26;;;;;;;8.47;2.77;;;14.50;79.20;;;;;;5236898;27;20263;-60
2024/04/17 07:46:54;;;;;;;6.17;2.23;;;14.50;79.10;;;;;;5210177;27;20622;-60
2024/04/17 07:49:22;;;;;;;5.47;3.50;;;14.50;78.60;;;;;;5207857;27;20313;-60
2024/04/17 07:51:50;;;;;;;3.97;2.47;;;14.50;78.90;;;;;;5221133;27;20258;-61
2024/04/17 07:54:18;;;;;;;2.80;2.17;;;14.60;79.20;;;;;;5210795;27;20250;-61
2024/04/17 07:56:46;;;;;;;8.47;2.43;;;14.70;79.00;;;;;;5220731;27;20297;-61
2024/04/17 07:59:13;;;;;;;5.07;2.60;;;14.90;78.90;;;;;;5208686;27;20245;-60
2024/04/17 08:01:40;;;;;;;6.07;2.83;;;15.00;78.50;;;;;;5205179;27;20255;-61
2024/04/17 08:04:08;;;;;;;4.70;2.30;;;15.20;77.20;;;;;;5212289;27;20246;-60
2024/04/17 08:06:36;;;;;;;6.57;2.30;;;15.20;77.10;;;;;;5201202;27;20258;-60
2024/04/17 08:09:07;;;;;;;4.70;2.13;;;15.20;77.40;;;;;;5207482;27;20258;-60
2024/04/17 08:11:36;;;;;;;6.17;2.47;;;15.30;77.30;;;;;;5210800;27;20750;-60
2024/04/17 08:14:05;;;;;;;4.67;2.67;;;15.30;77.70;;;;;;5198423;27;20254;-60
2024/04/17 08:16:32;;;;;;;7.20;1.90;;;15.40;77.60;;;;;;5243668;27;20333;-60
2024/04/17 08:19:00;;;;;;;3.47;2.00;;;15.40;77.20;;;;;;5244482;27;20256;-60
2024/04/17 08:21:28;;;;;;;6.53;2.87;;;15.40;77.40;;;;;;5238750;27;20247;-59
2024/04/17 08:23:56;;;;;;;7.13;1.73;;;15.40;77.60;;;;;;5189153;27;20249;-60
2024/04/17 08:26:23;;;;;;;3.33;1.77;;;15.30;77.40;;;;;;5244341;27;20249;-59
2024/04/17 08:28:50;;;;;;;8.40;2.30;;;15.30;76.60;;;;;;5244625;27;20336;-60
2024/04/17 08:31:18;;;;;;;6.63;1.80;;;15.30;77.00;;;;;;5241515;27;20358;-62
2024/04/17 08:33:45;;;;;;;4.37;2.17;;;15.30;77.20;;;;;;5211111;27;20609;-59
2024/04/17 08:36:13;;;;;;;9.43;1.87;;;15.30;77.80;;;;;;5244596;27;20298;-60
2024/04/17 08:38:41;;;;;;;5.33;1.80;;;15.40;77.10;;;;;;5244503;27;20291;-60
2024/04/17 08:41:08;;;;;;;7.00;2.03;;;15.60;77.30;;;;;;5184783;27;20265;-60
2024/04/17 08:43:37;;;;;;;2.80;1.70;;;15.80;77.20;;;;;;5239524;27;20260;-60
2024/04/17 08:46:05;;;;;;;4.77;1.90;;;16.10;76.70;;;;;;5239257;27;20249;-60
2024/04/17 08:48:32;;;;;;;3.00;2.00;;;16.30;76.20;;;;;;5243112;27;20242;-59
2024/04/17 08:51:01;;;;;;;5.43;2.07;;;16.50;75.40;;;;;;5244790;27;20246;-61
2024/04/17 08:53:31;;;;;;;4.97;2.03;;;16.60;73.30;;;;;;5213220;27;20341;-61
2024/04/17 08:55:59;;;;;;;6.80;2.40;;;16.50;73.40;;;;;;5211496;27;20718;-61
2024/04/17 08:58:28;;;;;;;5.27;2.00;;;16.40;74.10;;;;;;5190075;27;20256;-60
2024/04/17 09:00:55;;;;;;;10.40;2.93;;;16.40;74.60;;;;;;5244306;27;20287;-61
2024/04/17 09:03:23;;;;;;;8.43;2.33;;;16.50;73.40;;;;;;5241717;27;20246;-60
2024/04/17 09:05:53;;;;;;;13.60;3.20;;;16.40;73.50;;;;;;5243827;27;20264;-61
2024/04/17 09:08:24;;;;;;;10.03;2.20;;;16.30;73.50;;;;;;5242403;27;20283;-60
2024/04/17 09:10:54;;;;;;;5.70;1.90;;;16.20;73.70;;;;;;5243862;27;20393;-60
2024/04/17 09:13:23;;;;;;;5.70;2.53;;;16.10;73.80;;;;;;5214108;27;20632;-58
2024/04/17 09:15:50;;;;;;;4.27;1.87;;;16.10;74.80;;;;;;5238988;27;20250;-58
2024/04/17 09:18:25;;;;;;;10.00;2.23;;;16.00;75.30;;;;;;5240482;27;20246;-59
2024/04/17 09:20:55;;;;;;;5.13;1.73;;;16.00;75.20;;;;;;5207330;27;20251;-59
2024/04/17 09:23:23;;;;;;;8.53;2.60;;;16.00;74.90;;;;;;5243526;27;20708;-60
2024/04/17 09:25:51;;;;;;;9.00;2.03;;;16.00;75.10;;;;;;5215185;27;20253;-59
2024/04/17 09:28:18;;;;;;;7.60;2.40;;;15.90;75.40;;;;;;5181937;27;20291;-59
2024/04/17 09:30:48;;;;;;;4.17;2.00;;;15.80;75.80;;;;;;5241683;27;20248;-61
2024/04/17 09:33:17;;;;;;;8.07;2.60;;;15.80;75.90;;;;;;5215488;27;20707;-59
2024/04/17 09:35:44;;;;;;;5.93;2.17;;;15.90;75.50;;;;;;5243689;27;20245;-59
2024/04/17 09:38:15;;;;;;;14.70;2.73;;;15.80;76.00;;;;;;5241904;27;20306;-60
2024/04/17 09:40:46;;;;;;;8.27;2.43;;;16.00;76.80;;;;;;5202910;27;20257;-60
2024/04/17 09:43:25;;;;;;;6.40;2.90;;;16.20;75.90;;;;;;5241825;27;20241;-60
2024/04/17 09:46:05;;;;;;;5.53;2.20;;;16.50;75.20;;;;;;5220609;27;20349;-60
2024/04/17 09:48:37;;;;;;;13.90;2.53;;;16.70;74.80;;;;;;5221106;27;20258;-58
2024/04/17 09:51:06;;;;;;;6.00;1.90;;;16.90;74.40;;;;;;5246480;27;20722;-60
2024/04/17 09:53:59;;;;;;;10.47;3.03;;;17.10;74.10;;;;;;5231142;27;20358;-61
2024/04/17 09:56:27;;;;;;;7.53;2.47;;;17.30;73.70;;;;;;5242641;27;20244;-59
2024/04/17 09:58:56;;;;;;;7.47;3.10;;;17.50;72.80;;;;;;5213984;27;20356;-60
2024/04/17 10:01:36;;;;;;;6.00;2.77;;;17.50;72.20;;;;;;5223039;27;20253;-60
2024/04/17 10:04:08;;;;;;;7.50;2.90;;;17.70;72.90;;;;;;5213111;27;20301;-61
2024/04/17 10:06:44;;;;;;;13.23;3.20;;;17.80;72.40;;;;;;5197726;27;20306;-59
2024/04/17 10:09:15;;;;;;;7.33;3.17;;;18.00;70.80;;;;;;5236071;27;20248;-60
2024/04/17 10:11:43;;;;;;;10.60;3.10;;;18.10;70.40;;;;;;5244488;27;20244;-61
2024/04/17 10:14:13;;;;;;;9.17;3.23;;;18.30;70.40;;;;;;5244392;27;20247;-60
2024/04/17 10:16:40;;;;;;;9.73;2.93;;;18.50;69.90;;;;;;5208869;27;20265;-61
2024/04/17 10:19:09;;;;;;;6.97;2.83;;;18.60;69.30;;;;;;5213029;27;20295;-60
2024/04/17 10:21:36;;;;;;;10.67;3.50;;;18.60;68.70;;;;;;5212019;27;20252;-60
2024/04/17 10:24:10;;;;;;;8.40;3.33;;;18.60;68.20;;;;;;5213595;27;20260;-59
2024/04/17 10:26:44;;;;;;;6.20;3.17;;;18.60;68.20;;;;;;5210328;27;20252;-60
2024/04/17 10:29:25;;;;;;;7.93;3.60;;;18.50;68.60;;;;;;5213254;27;20595;-60
2024/04/17 10:32:02;;;;;;;4.43;3.23;;;18.80;69.10;;;;;;5206651;27;20247;-59
2024/04/17 10:34:44;;;;;;;8.13;3.20;;;19.00;68.00;;;;;;5212616;27;20568;-59
2024/04/17 10:37:14;;;;;;;11.87;3.83;;;19.30;66.60;;;;;;5213585;27;20242;-60
2024/04/17 10:39:43;;;;;;;12.83;3.47;;;19.50;65.70;;;;;;5211538;27;20629;-60
2024/04/17 10:42:15;;;;;;;12.73;3.53;;;19.70;66.00;;;;;;5212724;27;20254;-60
2024/04/17 10:44:50;;;;;;;8.70;4.03;;;19.90;65.60;;;;;;5212105;27;20711;-61
2024/04/17 10:47:20;;;;;;;8.60;3.80;;;19.90;63.80;;;;;;5207267;27;20697;-60
2024/04/17 10:49:57;;;;;;;8.37;3.40;;;19.90;63.90;;;;;;5208308;27;20328;-60
2024/04/17 10:52:26;;;;;;;10.47;3.83;;;19.90;63.40;;;;;;5208958;27;20265;-60
2024/04/17 10:54:55;;;;;;;13.60;3.70;;;19.90;63.40;;;;;;5180057;27;20700;-61
2024/04/17 10:57:24;;;;;;;11.70;3.50;;;20.00;63.90;;;;;;5211077;27;20241;-60
2024/04/17 10:59:52;;;;;;;16.10;3.80;;;20.10;63.80;;;;;;5178450;27;20287;-61
2024/04/17 11:02:19;;;;;;;11.20;3.30;;;20.20;63.20;;;;;;5207127;27;20253;-60
2024/04/17 11:04:47;;;;;;;9.73;4.87;;;20.30;62.80;;;;;;5210722;27;20257;-60
2024/04/17 11:07:16;;;;;;;6.80;3.80;;;20.50;62.30;;;;;;5210995;27;20814;-61
2024/04/17 11:09:44;;;;;;;10.53;4.10;;;20.60;62.10;;;;;;5205732;27;20586;-58
2024/04/17 11:12:17;;;;;;;9.80;3.87;;;20.70;61.80;;;;;;5214921;27;20803;-61
2024/04/17 11:14:46;;;;;;;10.80;4.13;;;20.70;62.10;;;;;;5218627;27;20339;-61
2024/04/17 11:17:14;;;;;;;13.77;5.53;;;20.80;62.30;;;;;;5244550;27;20253;-60
2024/04/17 11:19:42;;;;;;;11.27;3.60;;;20.80;61.80;;;;;;5237702;27;20273;-61
2024/04/17 11:22:11;;;;;;;7.07;3.37;;;20.70;61.60;;;;;;5243757;27;20707;-60
2024/04/17 11:24:48;;;;;;;7.47;3.20;;;20.60;60.10;;;;;;5243468;27;20244;-60
2024/04/17 11:27:18;;;;;;;12.00;3.70;;;20.40;61.30;;;;;;5246319;27;20604;-60
2024/04/17 11:29:47;;;;;;;6.13;3.77;;;20.40;61.60;;;;;;5239547;27;20287;-60
2024/04/17 11:32:16;;;;;;;6.57;3.50;;;20.40;61.10;;;;;;5243856;27;20576;-60
2024/04/17 11:34:45;;;;;;;6.47;2.77;;;20.40;61.00;;;;;;5208834;27;20337;-61
2024/04/17 11:37:14;;;;;;;11.73;3.63;;;20.50;61.90;;;;;;5215733;27;20686;-60
2024/04/17 11:39:41;;;;;;;7.07;3.73;;;20.60;61.50;;;;;;5216945;27;20240;-60
2024/04/17 11:42:15;;;;;;;9.23;3.30;;;20.80;61.30;;;;;;5227326;27;20351;-60
2024/04/17 11:44:43;;;;;;;13.70;3.57;;;21.00;60.50;;;;;;5245825;27;20380;-60
2024/04/17 11:47:13;;;;;;;7.03;3.63;;;21.10;59.50;;;;;;5217555;27;20248;-61
2024/04/17 11:49:42;;;;;;;7.53;3.30;;;21.10;59.90;;;;;;5245121;27;20741;-60
2024/04/17 11:52:12;;;;;;;4.37;2.77;;;21.10;59.40;;;;;;5241860;27;20299;-60
2024/04/17 11:54:40;;;;;;;5.30;2.90;;;21.10;59.50;;;;;;5214107;27;20298;-60
2024/04/17 11:57:10;;;;;;;6.43;2.83;;;21.20;58.80;;;;;;5245087;27;20249;-58
2024/04/17 11:59:45;;;;;;;7.10;3.00;;;21.20;58.20;;;;;;5242330;27;20343;-60
2024/04/17 12:02:12;;;;;;;11.70;3.10;;;21.30;58.00;;;;;;5241146;27;20249;-60
2024/04/17 12:04:42;;;;;;;5.87;2.70;;;21.20;59.00;;;;;;5244544;27;20737;-61
2024/04/17 12:07:10;;;;;;;5.43;3.00;;;21.20;58.00;;;;;;5243466;27;20292;-60
2024/04/17 12:09:37;;;;;;;7.43;2.77;;;21.20;58.50;;;;;;5215657;27;20303;-60
2024/04/17 12:12:05;;;;;;;9.70;2.87;;;21.30;58.30;;;;;;5245524;27;20324;-61
2024/04/17 12:14:32;;;;;;;7.97;2.73;;;21.30;57.70;;;;;;5218592;27;20325;-60
2024/04/17 12:17:00;;;;;;;4.23;2.33;;;21.30;57.60;;;;;;5241889;27;20257;-60
2024/04/17 12:19:27;;;;;;;13.10;3.13;;;21.40;57.00;;;;;;5244607;27;20295;-58
2024/04/17 12:21:55;;;;;;;11.93;2.63;;;21.40;55.60;;;;;;5244842;27;20347;-58
2024/04/17 12:26:49;;;;;;;5.73;2.53;;;21.40;55.70;;;;;;5234598;27;20695;-60
2024/04/17 12:27:11;;;;;;;5.33;2.67;;;21.40;55.90;;;;;;5239807;27;20356;-60
2024/04/17 12:29:38;;;;;;;5.07;2.73;;;21.50;56.20;;;;;;5243301;27;20348;-60
2024/04/17 12:32:06;;;;;;;5.00;2.23;;;21.60;56.10;;;;;;5219969;27;20248;-60
2024/04/17 12:34:33;;;;;;;6.90;2.70;;;21.70;55.60;;;;;;5245448;27;20244;-61
2024/04/17 12:37:01;;;;;;;6.17;2.37;;;21.70;55.30;;;;;;5244474;27;20642;-60
2024/04/17 12:39:28;;;;;;;8.30;3.20;;;21.60;55.80;;;;;;5244606;27;20248;-60
2024/04/17 12:41:55;;;;;;;4.60;2.40;;;21.50;56.40;;;;;;5239701;27;20706;-60
2024/04/17 12:44:23;;;;;;;4.80;2.30;;;21.60;56.40;;;;;;5244242;27;20252;-60
2024/04/17 12:46:50;;;;;;;5.43;1.90;;;21.60;56.40;;;;;;5244102;27;20309;-61
2024/04/17 12:49:17;;;;;;;6.43;2.60;;;21.60;56.20;;;;;;5241717;27;20317;-61
2024/04/17 12:51:45;;;;;;;7.03;2.00;;;21.60;55.20;;;;;;5210775;27;20254;-59